sensor_id;sensor_type;location;lat;lon;timestamp;P1;durP1;ratioP1;P2;durP2;ratioP2
29776;SDS011;16677;52.224;7.484;2023-08-08T00:02:02;5.90;;;4.63;;
29776;SDS011;16677;52.224;7.484;2023-08-08T00:04:29;6.22;;;4.50;;
29776;SDS011;16677;52.224;7.484;2023-08-08T00:06:56;7.07;;;4.80;;
29776;SDS011;16677;52.224;7.484;2023-08-08T00:09:24;9.77;;;4.63;;
29776;SDS011;16677;52.224;7.484;2023-08-08T00:11:51;5.13;;;4.50;;
29776;SDS011;16677;52.224;7.484;2023-08-08T00:14:18;6.87;;;4.37;;
29776;SDS011;16677;52.224;7.484;2023-08-08T00:16:45;5.88;;;4.60;;
29776;SDS011;16677;52.224;7.484;2023-08-08T00:19:12;5.17;;;4.67;;
29776;SDS011;16677;52.224;7.484;2023-08-08T00:21:40;6.03;;;4.40;;
29776;SDS011;16677;52.224;7.484;2023-08-08T00:24:07;5.47;;;4.40;;
29776;SDS011;16677;52.224;7.484;2023-08-08T00:26:34;4.57;;;4.17;;
29776;SDS011;16677;52.224;7.484;2023-08-08T00:29:02;6.60;;;4.60;;
29776;SDS011;16677;52.224;7.484;2023-08-08T00:31:29;7.63;;;4.82;;
29776;SDS011;16677;52.224;7.484;2023-08-08T00:33:56;6.18;;;4.40;;
29776;SDS011;16677;52.224;7.484;2023-08-08T00:36:23;6.95;;;4.78;;
29776;SDS011;16677;52.224;7.484;2023-08-08T00:38:51;6.07;;;4.40;;
29776;SDS011;16677;52.224;7.484;2023-08-08T00:41:18;6.28;;;4.45;;
29776;SDS011;16677;52.224;7.484;2023-08-08T00:43:45;6.10;;;4.40;;
29776;SDS011;16677;52.224;7.484;2023-08-08T00:46:12;6.72;;;4.68;;
29776;SDS011;16677;52.224;7.484;2023-08-08T00:48:48;6.43;;;4.60;;
29776;SDS011;16677;52.224;7.484;2023-08-08T00:51:17;6.20;;;4.63;;
29776;SDS011;16677;52.224;7.484;2023-08-08T00:53:45;7.47;;;4.82;;
29776;SDS011;16677;52.224;7.484;2023-08-08T00:56:13;5.95;;;4.40;;
29776;SDS011;16677;52.224;7.484;2023-08-08T00:58:40;6.38;;;4.80;;
29776;SDS011;16677;52.224;7.484;2023-08-08T01:01:08;5.55;;;4.30;;
29776;SDS011;16677;52.224;7.484;2023-08-08T01:03:35;5.55;;;4.20;;
29776;SDS011;16677;52.224;7.484;2023-08-08T01:08:47;6.88;;;4.03;;
29776;SDS011;16677;52.224;7.484;2023-08-08T01:11:22;6.50;;;4.10;;
29776;SDS011;16677;52.224;7.484;2023-08-08T01:13:49;7.45;;;4.25;;
29776;SDS011;16677;52.224;7.484;2023-08-08T01:16:18;5.40;;;4.00;;
29776;SDS011;16677;52.224;7.484;2023-08-08T01:21:15;4.63;;;3.50;;
29776;SDS011;16677;52.224;7.484;2023-08-08T01:23:46;5.35;;;3.60;;
29776;SDS011;16677;52.224;7.484;2023-08-08T01:26:23;5.90;;;3.78;;
29776;SDS011;16677;52.224;7.484;2023-08-08T01:28:53;4.78;;;3.70;;
29776;SDS011;16677;52.224;7.484;2023-08-08T01:31:21;4.55;;;3.58;;
29776;SDS011;16677;52.224;7.484;2023-08-08T01:33:48;3.73;;;2.93;;
29776;SDS011;16677;52.224;7.484;2023-08-08T03:44:23;13.50;;;9.80;;
29776;SDS011;16677;52.224;7.484;2023-08-08T03:46:50;17.07;;;10.33;;
29776;SDS011;16677;52.224;7.484;2023-08-08T03:49:24;14.50;;;9.53;;
29776;SDS011;16677;52.224;7.484;2023-08-08T03:51:52;12.17;;;9.17;;
29776;SDS011;16677;52.224;7.484;2023-08-08T03:54:19;15.80;;;9.63;;
29776;SDS011;16677;52.224;7.484;2023-08-08T03:56:46;10.40;;;9.23;;
29776;SDS011;16677;52.224;7.484;2023-08-08T03:59:13;11.90;;;9.10;;
29776;SDS011;16677;52.224;7.484;2023-08-08T04:01:41;15.43;;;10.40;;
29776;SDS011;16677;52.224;7.484;2023-08-08T04:04:08;15.50;;;9.90;;
29776;SDS011;16677;52.224;7.484;2023-08-08T04:06:35;14.47;;;9.27;;
29776;SDS011;16677;52.224;7.484;2023-08-08T04:09:02;18.57;;;9.93;;
29776;SDS011;16677;52.224;7.484;2023-08-08T04:11:30;10.77;;;9.37;;
29776;SDS011;16677;52.224;7.484;2023-08-08T04:13:57;15.03;;;9.87;;
29776;SDS011;16677;52.224;7.484;2023-08-08T04:16:24;14.27;;;9.50;;
29776;SDS011;16677;52.224;7.484;2023-08-08T04:18:52;15.83;;;8.93;;
29776;SDS011;16677;52.224;7.484;2023-08-08T04:21:19;13.37;;;9.47;;
29776;SDS011;16677;52.224;7.484;2023-08-08T04:23:46;12.20;;;9.43;;
29776;SDS011;16677;52.224;7.484;2023-08-08T04:26:13;14.43;;;9.37;;
29776;SDS011;16677;52.224;7.484;2023-08-08T04:28:41;11.83;;;9.30;;
29776;SDS011;16677;52.224;7.484;2023-08-08T04:31:08;14.80;;;9.13;;
29776;SDS011;16677;52.224;7.484;2023-08-08T04:33:35;13.50;;;9.73;;
29776;SDS011;16677;52.224;7.484;2023-08-08T04:36:02;12.90;;;8.47;;
29776;SDS011;16677;52.224;7.484;2023-08-08T04:38:30;14.20;;;9.20;;
29776;SDS011;16677;52.224;7.484;2023-08-08T04:40:57;15.97;;;8.57;;
29776;SDS011;16677;52.224;7.484;2023-08-08T04:43:24;12.37;;;8.90;;
29776;SDS011;16677;52.224;7.484;2023-08-08T04:45:54;13.20;;;9.67;;
29776;SDS011;16677;52.224;7.484;2023-08-08T04:48:21;12.30;;;8.50;;
29776;SDS011;16677;52.224;7.484;2023-08-08T04:50:48;12.20;;;8.67;;
29776;SDS011;16677;52.224;7.484;2023-08-08T04:53:15;11.83;;;8.60;;
29776;SDS011;16677;52.224;7.484;2023-08-08T04:55:42;15.03;;;9.17;;
29776;SDS011;16677;52.224;7.484;2023-08-08T04:58:09;11.97;;;8.40;;
29776;SDS011;16677;52.224;7.484;2023-08-08T05:00:37;10.40;;;8.27;;
29776;SDS011;16677;52.224;7.484;2023-08-08T05:03:04;13.00;;;8.53;;
29776;SDS011;16677;52.224;7.484;2023-08-08T05:17:47;12.70;;;8.37;;
29776;SDS011;16677;52.224;7.484;2023-08-08T05:20:15;12.70;;;8.00;;
29776;SDS011;16677;52.224;7.484;2023-08-08T05:22:42;15.20;;;8.00;;
29776;SDS011;16677;52.224;7.484;2023-08-08T05:25:09;12.33;;;6.50;;
29776;SDS011;16677;52.224;7.484;2023-08-08T05:27:37;8.67;;;5.97;;
29776;SDS011;16677;52.224;7.484;2023-08-08T05:30:04;8.63;;;5.80;;
29776;SDS011;16677;52.224;7.484;2023-08-08T05:32:32;8.80;;;6.78;;
29776;SDS011;16677;52.224;7.484;2023-08-08T05:35:00;9.60;;;6.30;;
29776;SDS011;16677;52.224;7.484;2023-08-08T05:37:27;13.00;;;6.37;;
29776;SDS011;16677;52.224;7.484;2023-08-08T05:39:54;11.00;;;6.90;;
29776;SDS011;16677;52.224;7.484;2023-08-08T05:42:21;8.80;;;5.93;;
29776;SDS011;16677;52.224;7.484;2023-08-08T05:44:49;9.90;;;5.37;;
29776;SDS011;16677;52.224;7.484;2023-08-08T05:47:16;11.30;;;5.70;;
29776;SDS011;16677;52.224;7.484;2023-08-08T05:49:43;9.47;;;5.20;;
29776;SDS011;16677;52.224;7.484;2023-08-08T05:52:10;8.53;;;4.80;;
29776;SDS011;16677;52.224;7.484;2023-08-08T05:54:37;11.17;;;6.30;;
29776;SDS011;16677;52.224;7.484;2023-08-08T05:57:05;10.73;;;5.80;;
29776;SDS011;16677;52.224;7.484;2023-08-08T05:59:33;10.27;;;5.70;;
29776;SDS011;16677;52.224;7.484;2023-08-08T06:02:01;9.60;;;5.80;;
29776;SDS011;16677;52.224;7.484;2023-08-08T06:04:29;9.60;;;5.70;;
29776;SDS011;16677;52.224;7.484;2023-08-08T06:06:56;8.67;;;5.57;;
29776;SDS011;16677;52.224;7.484;2023-08-08T06:09:24;10.03;;;5.87;;
29776;SDS011;16677;52.224;7.484;2023-08-08T06:11:52;8.77;;;6.30;;
29776;SDS011;16677;52.224;7.484;2023-08-08T06:14:19;6.57;;;5.30;;
29776;SDS011;16677;52.224;7.484;2023-08-08T06:16:46;12.13;;;6.00;;
29776;SDS011;16677;52.224;7.484;2023-08-08T06:19:13;8.03;;;5.13;;
29776;SDS011;16677;52.224;7.484;2023-08-08T06:21:42;6.83;;;4.50;;
29776;SDS011;16677;52.224;7.484;2023-08-08T06:24:09;8.03;;;5.27;;
29776;SDS011;16677;52.224;7.484;2023-08-08T06:26:36;6.23;;;4.30;;
29776;SDS011;16677;52.224;7.484;2023-08-08T06:29:03;8.23;;;5.23;;
29776;SDS011;16677;52.224;7.484;2023-08-08T06:31:30;12.47;;;5.73;;
29776;SDS011;16677;52.224;7.484;2023-08-08T06:33:58;8.27;;;5.30;;
29776;SDS011;16677;52.224;7.484;2023-08-08T06:36:25;7.07;;;5.07;;
29776;SDS011;16677;52.224;7.484;2023-08-08T06:38:52;8.60;;;4.90;;
29776;SDS011;16677;52.224;7.484;2023-08-08T06:41:19;9.30;;;5.17;;
29776;SDS011;16677;52.224;7.484;2023-08-08T06:43:46;8.93;;;5.30;;
29776;SDS011;16677;52.224;7.484;2023-08-08T06:46:13;7.60;;;5.60;;
29776;SDS011;16677;52.224;7.484;2023-08-08T06:48:42;9.33;;;5.23;;
29776;SDS011;16677;52.224;7.484;2023-08-08T06:51:11;9.80;;;5.30;;
29776;SDS011;16677;52.224;7.484;2023-08-08T06:53:38;8.57;;;4.80;;
29776;SDS011;16677;52.224;7.484;2023-08-08T06:56:05;10.57;;;5.23;;
29776;SDS011;16677;52.224;7.484;2023-08-08T06:58:32;10.90;;;5.30;;
29776;SDS011;16677;52.224;7.484;2023-08-08T07:00:59;9.53;;;5.37;;
29776;SDS011;16677;52.224;7.484;2023-08-08T07:06:02;12.33;;;4.60;;
29776;SDS011;16677;52.224;7.484;2023-08-08T07:08:30;6.90;;;4.50;;
29776;SDS011;16677;52.224;7.484;2023-08-08T07:10:57;9.10;;;4.80;;
29776;SDS011;16677;52.224;7.484;2023-08-08T07:13:24;9.10;;;4.23;;
29776;SDS011;16677;52.224;7.484;2023-08-08T07:15:52;7.17;;;4.77;;
29776;SDS011;16677;52.224;7.484;2023-08-08T07:18:19;11.00;;;4.87;;
29776;SDS011;16677;52.224;7.484;2023-08-08T07:20:47;8.20;;;4.33;;
29776;SDS011;16677;52.224;7.484;2023-08-08T07:23:15;7.60;;;4.23;;
29776;SDS011;16677;52.224;7.484;2023-08-08T07:25:43;7.78;;;4.35;;
29776;SDS011;16677;52.224;7.484;2023-08-08T07:28:11;8.57;;;4.10;;
29776;SDS011;16677;52.224;7.484;2023-08-08T07:30:40;7.60;;;4.20;;
29776;SDS011;16677;52.224;7.484;2023-08-08T07:33:08;12.13;;;3.83;;
29776;SDS011;16677;52.224;7.484;2023-08-08T07:35:36;8.53;;;4.17;;
29776;SDS011;16677;52.224;7.484;2023-08-08T07:38:03;7.72;;;4.60;;
29776;SDS011;16677;52.224;7.484;2023-08-08T07:40:30;6.27;;;3.57;;
29776;SDS011;16677;52.224;7.484;2023-08-08T07:42:57;7.80;;;3.63;;
29776;SDS011;16677;52.224;7.484;2023-08-08T07:45:25;7.13;;;4.03;;
29776;SDS011;16677;52.224;7.484;2023-08-08T07:47:52;8.33;;;4.10;;
29776;SDS011;16677;52.224;7.484;2023-08-08T07:50:19;10.40;;;3.93;;
29776;SDS011;16677;52.224;7.484;2023-08-08T07:52:46;8.50;;;4.07;;
29776;SDS011;16677;52.224;7.484;2023-08-08T07:55:14;8.67;;;3.80;;
29776;SDS011;16677;52.224;7.484;2023-08-08T07:57:41;6.43;;;3.77;;
29776;SDS011;16677;52.224;7.484;2023-08-08T08:00:08;7.27;;;3.43;;
29776;SDS011;16677;52.224;7.484;2023-08-08T08:02:40;5.23;;;3.17;;
29776;SDS011;16677;52.224;7.484;2023-08-08T08:05:10;5.57;;;3.13;;
29776;SDS011;16677;52.224;7.484;2023-08-08T08:07:38;7.60;;;3.10;;
29776;SDS011;16677;52.224;7.484;2023-08-08T08:10:07;5.27;;;2.93;;
29776;SDS011;16677;52.224;7.484;2023-08-08T08:12:36;5.33;;;3.33;;
29776;SDS011;16677;52.224;7.484;2023-08-08T08:15:04;6.97;;;2.93;;
29776;SDS011;16677;52.224;7.484;2023-08-08T08:17:32;5.70;;;2.83;;
29776;SDS011;16677;52.224;7.484;2023-08-08T08:19:59;8.03;;;2.90;;
29776;SDS011;16677;52.224;7.484;2023-08-08T08:22:32;9.27;;;2.97;;
29776;SDS011;16677;52.224;7.484;2023-08-08T08:24:59;6.93;;;2.80;;
29776;SDS011;16677;52.224;7.484;2023-08-08T08:27:26;4.40;;;2.43;;
29776;SDS011;16677;52.224;7.484;2023-08-08T08:29:53;5.60;;;2.60;;
29776;SDS011;16677;52.224;7.484;2023-08-08T08:32:20;7.63;;;2.40;;
29776;SDS011;16677;52.224;7.484;2023-08-08T08:34:48;4.23;;;2.40;;
29776;SDS011;16677;52.224;7.484;2023-08-08T08:37:15;7.43;;;2.60;;
29776;SDS011;16677;52.224;7.484;2023-08-08T08:39:42;4.57;;;2.30;;
29776;SDS011;16677;52.224;7.484;2023-08-08T08:42:09;3.57;;;1.90;;
29776;SDS011;16677;52.224;7.484;2023-08-08T08:44:42;6.80;;;2.70;;
29776;SDS011;16677;52.224;7.484;2023-08-08T08:47:10;5.77;;;2.30;;
29776;SDS011;16677;52.224;7.484;2023-08-08T08:49:39;5.67;;;2.40;;
29776;SDS011;16677;52.224;7.484;2023-08-08T08:52:09;4.83;;;2.00;;
29776;SDS011;16677;52.224;7.484;2023-08-08T08:54:37;8.90;;;2.30;;
29776;SDS011;16677;52.224;7.484;2023-08-08T08:57:05;3.83;;;2.30;;
29776;SDS011;16677;52.224;7.484;2023-08-08T08:59:33;6.80;;;2.20;;
29776;SDS011;16677;52.224;7.484;2023-08-08T09:02:00;4.63;;;1.90;;
29776;SDS011;16677;52.224;7.484;2023-08-08T09:04:29;5.37;;;2.37;;
29776;SDS011;16677;52.224;7.484;2023-08-08T09:06:58;6.87;;;2.30;;
29776;SDS011;16677;52.224;7.484;2023-08-08T09:09:25;3.90;;;1.90;;
29776;SDS011;16677;52.224;7.484;2023-08-08T09:11:53;5.10;;;2.20;;
29776;SDS011;16677;52.224;7.484;2023-08-08T09:14:24;6.67;;;2.10;;
29776;SDS011;16677;52.224;7.484;2023-08-08T09:16:53;5.50;;;2.10;;
29776;SDS011;16677;52.224;7.484;2023-08-08T09:19:21;3.03;;;1.80;;
29776;SDS011;16677;52.224;7.484;2023-08-08T09:21:50;3.47;;;1.83;;
29776;SDS011;16677;52.224;7.484;2023-08-08T09:24:18;3.97;;;1.60;;
29776;SDS011;16677;52.224;7.484;2023-08-08T09:26:46;6.63;;;2.20;;
29776;SDS011;16677;52.224;7.484;2023-08-08T09:29:13;3.40;;;1.93;;
29776;SDS011;16677;52.224;7.484;2023-08-08T09:31:41;5.57;;;2.37;;
29776;SDS011;16677;52.224;7.484;2023-08-08T09:34:08;5.90;;;2.07;;
29776;SDS011;16677;52.224;7.484;2023-08-08T09:36:36;3.30;;;1.90;;
29776;SDS011;16677;52.224;7.484;2023-08-08T09:39:03;6.40;;;1.90;;
29776;SDS011;16677;52.224;7.484;2023-08-08T09:41:31;4.00;;;1.97;;
29776;SDS011;16677;52.224;7.484;2023-08-08T09:43:59;3.23;;;1.97;;
29776;SDS011;16677;52.224;7.484;2023-08-08T09:46:28;4.47;;;1.77;;
29776;SDS011;16677;52.224;7.484;2023-08-08T09:48:57;4.30;;;1.73;;
29776;SDS011;16677;52.224;7.484;2023-08-08T09:51:25;4.77;;;1.77;;
29776;SDS011;16677;52.224;7.484;2023-08-08T09:53:53;4.63;;;1.80;;
29776;SDS011;16677;52.224;7.484;2023-08-08T09:56:25;3.23;;;1.63;;
29776;SDS011;16677;52.224;7.484;2023-08-08T09:58:54;3.40;;;1.80;;
29776;SDS011;16677;52.224;7.484;2023-08-08T10:01:23;4.33;;;1.70;;
29776;SDS011;16677;52.224;7.484;2023-08-08T10:03:52;4.33;;;1.77;;
29776;SDS011;16677;52.224;7.484;2023-08-08T10:06:20;3.97;;;1.70;;
29776;SDS011;16677;52.224;7.484;2023-08-08T10:08:47;5.53;;;1.70;;
29776;SDS011;16677;52.224;7.484;2023-08-08T10:11:16;3.40;;;1.40;;
29776;SDS011;16677;52.224;7.484;2023-08-08T10:13:48;3.13;;;1.93;;
29776;SDS011;16677;52.224;7.484;2023-08-08T10:16:17;2.90;;;1.60;;
29776;SDS011;16677;52.224;7.484;2023-08-08T10:19:01;2.43;;;1.40;;
29776;SDS011;16677;52.224;7.484;2023-08-08T10:21:37;3.90;;;1.50;;
29776;SDS011;16677;52.224;7.484;2023-08-08T10:24:10;4.30;;;2.23;;
29776;SDS011;16677;52.224;7.484;2023-08-08T10:26:54;3.20;;;1.70;;
29776;SDS011;16677;52.224;7.484;2023-08-08T10:29:27;4.53;;;1.67;;
29776;SDS011;16677;52.224;7.484;2023-08-08T10:31:59;3.20;;;1.40;;
29776;SDS011;16677;52.224;7.484;2023-08-08T10:34:43;4.27;;;1.47;;
29776;SDS011;16677;52.224;7.484;2023-08-08T10:37:14;2.63;;;1.50;;
29776;SDS011;16677;52.224;7.484;2023-08-08T10:39:54;2.23;;;1.40;;
29776;SDS011;16677;52.224;7.484;2023-08-08T10:42:26;4.33;;;1.90;;
29776;SDS011;16677;52.224;7.484;2023-08-08T10:45:00;2.90;;;1.77;;
29776;SDS011;16677;52.224;7.484;2023-08-08T10:47:36;3.93;;;1.40;;
29776;SDS011;16677;52.224;7.484;2023-08-08T10:50:07;4.60;;;1.30;;
29776;SDS011;16677;52.224;7.484;2023-08-08T10:55:21;3.33;;;1.30;;
29776;SDS011;16677;52.224;7.484;2023-08-08T11:00:36;7.87;;;2.03;;
29776;SDS011;16677;52.224;7.484;2023-08-08T11:03:06;3.30;;;1.70;;
29776;SDS011;16677;52.224;7.484;2023-08-08T11:05:36;3.93;;;1.50;;
29776;SDS011;16677;52.224;7.484;2023-08-08T11:08:05;3.30;;;1.50;;
29776;SDS011;16677;52.224;7.484;2023-08-08T11:10:39;2.63;;;1.40;;
29776;SDS011;16677;52.224;7.484;2023-08-08T11:13:08;3.43;;;1.40;;
29776;SDS011;16677;52.224;7.484;2023-08-08T11:15:35;3.73;;;1.47;;
29776;SDS011;16677;52.224;7.484;2023-08-08T11:18:05;2.73;;;1.87;;
29776;SDS011;16677;52.224;7.484;2023-08-08T11:20:35;3.00;;;1.57;;
29776;SDS011;16677;52.224;7.484;2023-08-08T11:23:03;3.27;;;1.33;;
29776;SDS011;16677;52.224;7.484;2023-08-08T11:25:32;2.80;;;1.20;;
29776;SDS011;16677;52.224;7.484;2023-08-08T11:27:59;2.13;;;1.20;;
29776;SDS011;16677;52.224;7.484;2023-08-08T11:30:29;2.73;;;1.30;;
29776;SDS011;16677;52.224;7.484;2023-08-08T11:33:01;4.33;;;1.33;;
29776;SDS011;16677;52.224;7.484;2023-08-08T11:35:31;2.87;;;1.63;;
29776;SDS011;16677;52.224;7.484;2023-08-08T11:38:00;2.20;;;1.27;;
29776;SDS011;16677;52.224;7.484;2023-08-08T11:40:29;2.40;;;1.30;;
29776;SDS011;16677;52.224;7.484;2023-08-08T11:42:57;2.00;;;1.30;;
29776;SDS011;16677;52.224;7.484;2023-08-08T11:45:25;3.33;;;1.27;;
29776;SDS011;16677;52.224;7.484;2023-08-08T11:47:53;3.20;;;1.23;;
29776;SDS011;16677;52.224;7.484;2023-08-08T11:50:23;3.23;;;1.10;;
29776;SDS011;16677;52.224;7.484;2023-08-08T11:52:52;3.43;;;1.27;;
29776;SDS011;16677;52.224;7.484;2023-08-08T11:55:27;1.33;;;1.10;;
29776;SDS011;16677;52.224;7.484;2023-08-08T11:57:55;3.33;;;1.37;;
29776;SDS011;16677;52.224;7.484;2023-08-08T12:00:26;2.47;;;1.10;;
29776;SDS011;16677;52.224;7.484;2023-08-08T12:02:56;2.60;;;1.20;;
29776;SDS011;16677;52.224;7.484;2023-08-08T12:05:26;1.23;;;1.13;;
29776;SDS011;16677;52.224;7.484;2023-08-08T12:07:53;2.50;;;1.20;;
29776;SDS011;16677;52.224;7.484;2023-08-08T12:10:21;1.17;;;1.00;;
29776;SDS011;16677;52.224;7.484;2023-08-08T12:12:56;4.13;;;1.20;;
29776;SDS011;16677;52.224;7.484;2023-08-08T12:15:30;4.03;;;1.23;;
29776;SDS011;16677;52.224;7.484;2023-08-08T12:17:59;10.73;;;1.87;;
29776;SDS011;16677;52.224;7.484;2023-08-08T12:20:28;1.77;;;1.10;;
29776;SDS011;16677;52.224;7.484;2023-08-08T12:22:58;4.57;;;1.40;;
29776;SDS011;16677;52.224;7.484;2023-08-08T12:25:26;2.03;;;1.23;;
29776;SDS011;16677;52.224;7.484;2023-08-08T12:27:53;1.73;;;1.23;;
29776;SDS011;16677;52.224;7.484;2023-08-08T12:30:21;4.50;;;1.30;;
29776;SDS011;16677;52.224;7.484;2023-08-08T12:32:49;2.93;;;1.40;;
29776;SDS011;16677;52.224;7.484;2023-08-08T12:35:16;2.57;;;1.40;;
29776;SDS011;16677;52.224;7.484;2023-08-08T12:37:43;1.80;;;1.27;;
29776;SDS011;16677;52.224;7.484;2023-08-08T12:40:13;1.63;;;1.33;;
29776;SDS011;16677;52.224;7.484;2023-08-08T12:42:40;1.97;;;1.20;;
29776;SDS011;16677;52.224;7.484;2023-08-08T12:45:10;4.23;;;1.30;;
29776;SDS011;16677;52.224;7.484;2023-08-08T12:47:37;2.27;;;1.20;;
29776;SDS011;16677;52.224;7.484;2023-08-08T12:50:08;2.43;;;1.40;;
29776;SDS011;16677;52.224;7.484;2023-08-08T12:52:38;3.40;;;1.20;;
29776;SDS011;16677;52.224;7.484;2023-08-08T12:55:06;2.07;;;1.20;;
29776;SDS011;16677;52.224;7.484;2023-08-08T12:57:38;3.47;;;1.40;;
29776;SDS011;16677;52.224;7.484;2023-08-08T13:00:08;1.50;;;1.23;;
29776;SDS011;16677;52.224;7.484;2023-08-08T13:05:12;1.73;;;1.10;;
29776;SDS011;16677;52.224;7.484;2023-08-08T13:07:40;1.93;;;1.30;;
29776;SDS011;16677;52.224;7.484;2023-08-08T13:10:07;3.33;;;1.07;;
29776;SDS011;16677;52.224;7.484;2023-08-08T13:12:35;1.20;;;1.05;;
29776;SDS011;16677;52.224;7.484;2023-08-08T13:15:02;1.30;;;1.00;;
29776;SDS011;16677;52.224;7.484;2023-08-08T13:17:33;1.43;;;1.07;;
29776;SDS011;16677;52.224;7.484;2023-08-08T13:20:02;2.60;;;1.30;;
29776;SDS011;16677;52.224;7.484;2023-08-08T13:22:33;3.93;;;1.17;;
29776;SDS011;16677;52.224;7.484;2023-08-08T13:25:00;1.70;;;1.13;;
29776;SDS011;16677;52.224;7.484;2023-08-08T13:27:27;1.47;;;1.13;;
29776;SDS011;16677;52.224;7.484;2023-08-08T13:29:54;2.40;;;1.00;;
29776;SDS011;16677;52.224;7.484;2023-08-08T13:32:22;2.10;;;1.57;;
29776;SDS011;16677;52.224;7.484;2023-08-08T13:34:52;2.00;;;1.20;;
29776;SDS011;16677;52.224;7.484;2023-08-08T13:37:19;1.50;;;1.10;;
29776;SDS011;16677;52.224;7.484;2023-08-08T13:39:47;2.23;;;1.30;;
29776;SDS011;16677;52.224;7.484;2023-08-08T13:42:14;6.67;;;1.40;;
29776;SDS011;16677;52.224;7.484;2023-08-08T13:44:41;2.90;;;1.30;;
29776;SDS011;16677;52.224;7.484;2023-08-08T13:47:08;1.63;;;1.10;;
29776;SDS011;16677;52.224;7.484;2023-08-08T13:49:36;1.30;;;1.20;;
29776;SDS011;16677;52.224;7.484;2023-08-08T13:52:03;1.53;;;1.10;;
29776;SDS011;16677;52.224;7.484;2023-08-08T13:54:31;2.90;;;1.30;;
29776;SDS011;16677;52.224;7.484;2023-08-08T13:56:58;1.93;;;1.33;;
29776;SDS011;16677;52.224;7.484;2023-08-08T13:59:25;2.83;;;2.57;;
29776;SDS011;16677;52.224;7.484;2023-08-08T14:01:53;2.10;;;1.20;;
29776;SDS011;16677;52.224;7.484;2023-08-08T14:04:20;3.40;;;1.40;;
29776;SDS011;16677;52.224;7.484;2023-08-08T14:06:47;4.07;;;1.17;;
29776;SDS011;16677;52.224;7.484;2023-08-08T14:09:14;1.55;;;1.20;;
29776;SDS011;16677;52.224;7.484;2023-08-08T14:11:45;1.53;;;1.10;;
29776;SDS011;16677;52.224;7.484;2023-08-08T14:14:12;1.50;;;1.30;;
29776;SDS011;16677;52.224;7.484;2023-08-08T14:16:39;1.50;;;1.30;;
29776;SDS011;16677;52.224;7.484;2023-08-08T14:19:06;5.73;;;3.00;;
29776;SDS011;16677;52.224;7.484;2023-08-08T14:21:34;2.53;;;1.40;;
29776;SDS011;16677;52.224;7.484;2023-08-08T14:24:01;1.73;;;1.30;;
29776;SDS011;16677;52.224;7.484;2023-08-08T14:26:30;2.60;;;1.30;;
29776;SDS011;16677;52.224;7.484;2023-08-08T14:28:57;3.37;;;1.50;;
29776;SDS011;16677;52.224;7.484;2023-08-08T14:31:24;3.07;;;1.30;;
29776;SDS011;16677;52.224;7.484;2023-08-08T14:33:52;2.70;;;1.10;;
29776;SDS011;16677;52.224;7.484;2023-08-08T14:36:19;2.80;;;1.37;;
29776;SDS011;16677;52.224;7.484;2023-08-08T14:38:46;3.57;;;1.20;;
29776;SDS011;16677;52.224;7.484;2023-08-08T14:41:13;1.90;;;1.17;;
29776;SDS011;16677;52.224;7.484;2023-08-08T14:43:41;2.53;;;1.30;;
29776;SDS011;16677;52.224;7.484;2023-08-08T14:46:08;3.17;;;1.33;;
29776;SDS011;16677;52.224;7.484;2023-08-08T14:48:35;1.57;;;1.47;;
29776;SDS011;16677;52.224;7.484;2023-08-08T14:51:02;3.17;;;1.50;;
29776;SDS011;16677;52.224;7.484;2023-08-08T14:53:29;3.13;;;1.27;;
29776;SDS011;16677;52.224;7.484;2023-08-08T14:55:57;1.70;;;1.20;;
29776;SDS011;16677;52.224;7.484;2023-08-08T14:58:24;1.40;;;1.10;;
29776;SDS011;16677;52.224;7.484;2023-08-08T15:00:52;3.33;;;1.30;;
29776;SDS011;16677;52.224;7.484;2023-08-08T15:03:21;1.77;;;1.47;;
29776;SDS011;16677;52.224;7.484;2023-08-08T15:05:48;3.23;;;1.40;;
29776;SDS011;16677;52.224;7.484;2023-08-08T15:08:16;2.73;;;1.20;;
29776;SDS011;16677;52.224;7.484;2023-08-08T15:10:44;1.43;;;0.93;;
29776;SDS011;16677;52.224;7.484;2023-08-08T15:13:11;2.33;;;1.10;;
29776;SDS011;16677;52.224;7.484;2023-08-08T15:15:39;3.10;;;1.20;;
29776;SDS011;16677;52.224;7.484;2023-08-08T15:18:06;1.73;;;1.50;;
29776;SDS011;16677;52.224;7.484;2023-08-08T15:20:33;3.57;;;1.60;;
29776;SDS011;16677;52.224;7.484;2023-08-08T15:23:02;2.50;;;1.50;;
29776;SDS011;16677;52.224;7.484;2023-08-08T15:25:29;4.80;;;1.30;;
29776;SDS011;16677;52.224;7.484;2023-08-08T15:27:57;1.97;;;1.30;;
29776;SDS011;16677;52.224;7.484;2023-08-08T15:30:24;6.30;;;3.37;;
29776;SDS011;16677;52.224;7.484;2023-08-08T15:32:51;4.87;;;1.87;;
29776;SDS011;16677;52.224;7.484;2023-08-08T15:35:19;3.33;;;2.07;;
29776;SDS011;16677;52.224;7.484;2023-08-08T15:37:46;5.97;;;1.80;;
29776;SDS011;16677;52.224;7.484;2023-08-08T15:40:13;3.00;;;1.80;;
29776;SDS011;16677;52.224;7.484;2023-08-08T15:42:40;2.70;;;1.60;;
29776;SDS011;16677;52.224;7.484;2023-08-08T15:45:09;4.00;;;1.77;;
29776;SDS011;16677;52.224;7.484;2023-08-08T15:47:38;3.70;;;1.73;;
29776;SDS011;16677;52.224;7.484;2023-08-08T15:50:06;2.58;;;1.65;;
29776;SDS011;16677;52.224;7.484;2023-08-08T15:52:35;2.40;;;1.50;;
29776;SDS011;16677;52.224;7.484;2023-08-08T15:55:03;2.63;;;1.47;;
29776;SDS011;16677;52.224;7.484;2023-08-08T15:57:31;2.13;;;1.50;;
29776;SDS011;16677;52.224;7.484;2023-08-08T15:59:59;3.77;;;1.60;;
29776;SDS011;16677;52.224;7.484;2023-08-08T16:02:26;4.03;;;1.80;;
29776;SDS011;16677;52.224;7.484;2023-08-08T16:04:53;4.27;;;2.13;;
29776;SDS011;16677;52.224;7.484;2023-08-08T16:07:21;2.47;;;1.60;;
29776;SDS011;16677;52.224;7.484;2023-08-08T16:09:49;4.57;;;1.60;;
29776;SDS011;16677;52.224;7.484;2023-08-08T16:12:17;2.53;;;2.17;;
29776;SDS011;16677;52.224;7.484;2023-08-08T16:14:44;3.83;;;1.63;;
29776;SDS011;16677;52.224;7.484;2023-08-08T16:17:14;2.90;;;1.53;;
29776;SDS011;16677;52.224;7.484;2023-08-08T16:19:41;3.00;;;1.40;;
29776;SDS011;16677;52.224;7.484;2023-08-08T16:22:08;1.93;;;1.73;;
29776;SDS011;16677;52.224;7.484;2023-08-08T16:24:36;2.90;;;1.57;;
29776;SDS011;16677;52.224;7.484;2023-08-08T16:27:03;4.90;;;1.67;;
29776;SDS011;16677;52.224;7.484;2023-08-08T16:29:31;2.73;;;1.30;;
29776;SDS011;16677;52.224;7.484;2023-08-08T16:31:59;3.63;;;1.63;;
29776;SDS011;16677;52.224;7.484;2023-08-08T16:34:26;2.67;;;1.50;;
29776;SDS011;16677;52.224;7.484;2023-08-08T16:36:54;2.60;;;1.60;;
29776;SDS011;16677;52.224;7.484;2023-08-08T16:39:21;4.40;;;1.90;;
29776;SDS011;16677;52.224;7.484;2023-08-08T16:41:52;5.13;;;1.80;;
29776;SDS011;16677;52.224;7.484;2023-08-08T16:44:25;3.70;;;1.60;;
29776;SDS011;16677;52.224;7.484;2023-08-08T16:46:52;3.87;;;1.77;;
29776;SDS011;16677;52.224;7.484;2023-08-08T16:49:19;2.80;;;1.67;;
29776;SDS011;16677;52.224;7.484;2023-08-08T16:51:49;3.53;;;1.77;;
29776;SDS011;16677;52.224;7.484;2023-08-08T16:54:16;9.37;;;3.43;;
29776;SDS011;16677;52.224;7.484;2023-08-08T16:56:43;2.50;;;1.83;;
29776;SDS011;16677;52.224;7.484;2023-08-08T16:59:10;2.27;;;1.53;;
29776;SDS011;16677;52.224;7.484;2023-08-08T17:01:38;2.27;;;1.30;;
29776;SDS011;16677;52.224;7.484;2023-08-08T17:04:08;2.57;;;1.43;;
29776;SDS011;16677;52.224;7.484;2023-08-08T17:06:39;2.10;;;1.50;;
29776;SDS011;16677;52.224;7.484;2023-08-08T17:09:07;2.17;;;1.20;;
29776;SDS011;16677;52.224;7.484;2023-08-08T17:11:34;3.93;;;1.23;;
29776;SDS011;16677;52.224;7.484;2023-08-08T17:14:04;3.67;;;1.50;;
29776;SDS011;16677;52.224;7.484;2023-08-08T17:16:31;1.67;;;1.30;;
29776;SDS011;16677;52.224;7.484;2023-08-08T17:18:59;3.37;;;1.43;;
29776;SDS011;16677;52.224;7.484;2023-08-08T17:21:26;5.17;;;4.10;;
29776;SDS011;16677;52.224;7.484;2023-08-08T17:23:53;35.90;;;31.53;;
29776;SDS011;16677;52.224;7.484;2023-08-08T17:26:21;6.57;;;3.97;;
29776;SDS011;16677;52.224;7.484;2023-08-08T17:28:48;3.40;;;1.67;;